首页
METAR-TAF:

METAR-TAF

机场 :

Duplin County Airport

Kenansville, 北卡罗来纳州, 美国

纬度: 35-00-00N, 经度: 077-58-54W, 海拔: 42米

当前天气观测

该预报发布于28分钟前的11:20 UTC
静风
温度 6°C
湿度 100%
气压 1029 hPa
能見度: 11.3公里
天空无云
轻雾

METAR: KDPL 191120Z AUTO 00000KT 7SM BR CLR 06/06 A3038 RMK AO2

时间: 07:48 (11:48 UTC)


TAF: 丢失

超过4000个机场的气象观测和天气预报(METAR&TAF报告)。

可查询的气象台以黄色和红色小点在地图上表示。

将鼠标移到小点上方,可查看气象台名称。

然后点击查看天气观测和预报。

如需切换地图:点击带黑十字的绿色按钮放大地图;点击带横线的绿色按钮缩小地图;或者点击绿色箭头查看邻近地区的地图。


METAR-TAF: